createdAt,value
2018-11-13T00:09:28.497Z,1013.9
2018-11-13T00:20:13.695Z,1013.9
2018-11-13T00:30:27.140Z,1014.1
2018-11-13T00:40:40.756Z,1013.9
2018-11-13T00:51:56.973Z,1013.8
2018-11-13T01:02:11.762Z,1013.7
2018-11-13T01:13:35.393Z,1013.7
2018-11-13T01:24:24.351Z,1013.8
2018-11-13T01:45:37.645Z,1014.0
2018-11-13T01:56:07.731Z,1014.1
2018-11-13T02:07:04.085Z,1014.1
2018-11-13T02:17:21.625Z,1013.8
2018-11-13T02:27:56.915Z,1013.7
2018-11-13T02:38:18.464Z,1013.7
2018-11-13T02:59:21.509Z,1013.9
2018-11-13T03:10:30.232Z,1013.9
2018-11-13T03:20:59.362Z,1013.8
2018-11-13T03:31:18.840Z,1013.6
2018-11-13T03:41:45.081Z,1013.9
2018-11-13T03:52:05.020Z,1014.0
2018-11-13T04:03:04.662Z,1014.0
2018-11-13T04:13:48.614Z,1014.2
2018-11-13T04:24:39.268Z,1014.0
2018-11-13T04:34:53.252Z,1013.9
2018-11-13T04:55:57.145Z,1014.0
2018-11-13T05:06:24.643Z,1014.0
2018-11-13T05:17:48.395Z,1014.2
2018-11-13T05:28:36.445Z,1014.3
2018-11-13T05:51:09.350Z,1014.4
2018-11-13T06:01:24.074Z,1014.5
2018-11-13T06:12:11.486Z,1014.6
2018-11-13T06:22:30.882Z,1014.7
2018-11-13T06:32:48.160Z,1014.7
2018-11-13T06:43:17.454Z,1014.8
2018-11-13T06:54:20.982Z,1014.9
2018-11-13T07:04:39.797Z,1015.1
2018-11-13T07:30:18.575Z,1015.3
2018-11-13T07:41:12.266Z,1015.3
2018-11-13T07:52:07.352Z,1015.3
2018-11-13T08:02:54.193Z,1015.4
2018-11-13T08:13:46.711Z,1015.6
2018-11-13T08:24:04.200Z,1015.8
2018-11-13T08:34:19.381Z,1015.9
2018-11-13T08:47:45.344Z,1016.1
2018-11-13T09:27:41.730Z,1016.2
2018-11-13T10:05:24.457Z,1016.3
2018-11-13T10:41:17.198Z,1016.5
2018-11-13T11:03:47.514Z,1016.5
2018-11-13T11:14:41.992Z,1016.6
2018-11-13T11:24:57.023Z,1016.5
2018-11-13T11:51:05.378Z,1016.3
2018-11-13T12:03:31.438Z,1016.5
2018-11-13T12:29:59.259Z,1016.3
2018-11-13T12:40:14.150Z,1016.5
2018-11-13T12:51:00.804Z,1016.8
2018-11-13T13:02:56.269Z,1017.0
2018-11-13T13:14:50.158Z,1017.3
2018-11-13T13:26:41.612Z,1018.4
2018-11-13T13:37:01.796Z,1019.0
2018-11-13T13:48:08.849Z,1019.4
2018-11-13T13:58:31.307Z,1017.5
2018-11-13T14:08:50.777Z,1018.7
2018-11-13T14:19:40.864Z,1018.1
2018-11-13T14:34:16.487Z,1018.1
2018-11-13T14:46:09.883Z,1018.0
2018-11-13T14:57:19.466Z,1018.2
2018-11-13T15:08:13.440Z,1018.5
2018-11-13T15:19:02.785Z,1018.8
2018-11-13T15:31:45.800Z,1019.0
2018-11-13T15:42:42.923Z,1019.2
2018-11-13T15:53:49.478Z,1019.3
2018-11-13T16:06:03.501Z,1019.6
2018-11-13T16:28:10.024Z,1019.9
2018-11-13T16:46:04.197Z,1020.2
2018-11-13T16:58:49.330Z,1020.4
2018-11-13T17:49:40.812Z,1020.9
2018-11-13T18:13:33.445Z,1021.1
2018-11-13T18:54:46.196Z,1021.5
2018-11-13T19:05:38.741Z,1021.6
2018-11-13T19:47:21.039Z,1022.0
